Time;durP1;ratioP1;P1;durP2;ratioP2;P2;SDS_P1;SDS_P2;PMS_P1;PMS_P2;Temp;Humidity;BMP_temperature;BMP_pressure;BME280_temperature;BME280_humidity;BME280_pressure;Samples;Min_cycle;Max_cycle;Signal;HPM_P1;HPM_P2
2022/09/06 00:02:47;;;;;;;;;62.00;50.60;;;;;21.25;36.23;99479.63;6160438;28;97150;-57
2022/09/06 00:05:51;;;;;;;;;49.60;41.80;;;;;21.22;36.42;99476.59;6159107;28;97442;-53
2022/09/06 00:08:55;;;;;;;;;49.80;41.80;;;;;21.22;36.40;99471.94;6160833;28;97522;-56
2022/09/06 00:11:59;;;;;;;;;65.83;54.00;;;;;21.19;36.36;99472.50;6163807;28;96425;-59
2022/09/06 00:15:05;;;;;;;;;43.60;38.00;;;;;21.15;36.10;99468.69;6164577;28;97949;-54
2022/09/06 00:18:09;;;;;;;;;32.40;30.00;;;;;21.13;36.76;99470.84;6163401;28;98011;-57
2022/09/06 00:21:18;;;;;;;;;44.60;38.00;;;;;20.88;36.36;99437.97;6163792;28;97447;-61
2022/09/06 00:24:23;;;;;;;;;53.33;45.33;;;;;20.99;36.63;99473.31;6163530;28;97201;-56
2022/09/06 00:27:27;;;;;;;;;50.00;42.00;;;;;20.84;36.65;99443.19;6164042;28;97500;-55
2022/09/06 00:30:32;;;;;;;;;52.17;44.33;;;;;20.99;36.67;99461.53;6179415;28;97483;-55
2022/09/06 00:33:35;;;;;;;;;42.25;37.25;;;;;21.01;36.43;99462.88;6162940;28;97429;-55
2022/09/06 00:36:38;;;;;;;;;35.33;32.00;;;;;21.05;36.67;99474.16;6164762;28;96918;-59
2022/09/06 00:39:43;;;;;;;;;46.67;40.33;;;;;21.03;36.65;99470.84;6162936;28;97832;-61
2022/09/06 00:42:46;;;;;;;;;53.33;45.17;;;;;20.97;36.62;99460.97;6161088;28;97448;-53
2022/09/06 00:45:51;;;;;;;;;49.60;42.60;;;;;20.94;36.19;99469.75;6163684;28;97209;-58
2022/09/06 00:48:57;;;;;;;;;42.60;36.80;;;;;20.88;36.53;99465.38;6162873;28;97422;-57
2022/09/06 00:52:03;;;;;;;;;53.60;44.60;;;;;20.85;36.41;99474.97;6162371;28;97674;-57
2022/09/06 00:55:09;;;;;;;;;46.50;39.83;;;;;20.75;36.47;99464.03;6163158;28;97574;-57
2022/09/06 00:58:13;;;;;;;;;46.40;39.80;;;;;20.72;36.66;99465.38;6163308;28;97048;-53
2022/09/06 01:01:16;;;;;;;;;44.00;38.00;;;;;20.69;36.73;99476.88;6162433;28;97424;-56
2022/09/06 01:04:20;;;;;;;;;56.67;47.00;;;;;20.69;36.84;99467.84;6163015;28;96915;-56
2022/09/06 01:07:37;;;;;;;;;37.17;33.67;;;;;20.65;36.67;99467.56;6161903;28;97182;-55
2022/09/06 01:11:10;;;;;;;;;50.50;42.83;;;;;20.67;36.96;99475.53;6162645;28;97346;-57
2022/09/06 01:14:25;;;;;;;;;39.60;35.00;;;;;20.66;36.54;99477.44;6162129;28;98473;-54
2022/09/06 01:17:44;;;;;;;;;34.60;32.60;;;;;20.66;36.75;99488.41;6162402;28;98082;-56
2022/09/06 01:21:08;;;;;;;;;61.80;50.80;;;;;20.62;36.82;99481.81;6161400;28;97393;-57
2022/09/06 01:24:49;;;;;;;;;52.40;44.20;;;;;20.59;36.70;99473.31;6160594;28;97922;-53
2022/09/06 01:28:18;;;;;;;;;52.80;44.40;;;;;20.56;36.76;99469.22;6154981;28;97455;-54
2022/09/06 01:31:31;;;;;;;;;38.80;35.00;;;;;20.54;36.85;99467.84;6161327;28;97472;-56
2022/09/06 01:34:40;;;;;;;;;58.67;48.83;;;;;20.48;36.69;99469.75;6161094;28;97337;-52
2022/09/06 01:37:43;;;;;;;;;45.40;39.00;;;;;20.46;37.05;99461.00;6159974;28;97192;-55
2022/09/06 01:40:47;;;;;;;;;45.00;39.00;;;;;20.47;37.13;99464.56;6159457;28;98301;-54
2022/09/06 01:43:53;;;;;;;;;41.20;36.20;;;;;20.49;36.79;99467.81;6160287;28;98162;-55
2022/09/06 01:47:09;;;;;;;;;47.00;40.25;;;;;20.44;36.90;99467.81;6158519;28;97107;-55
2022/09/06 01:50:27;;;;;;;;;45.17;39.17;;;;;20.41;37.30;99462.91;6162281;28;98152;-55
2022/09/06 01:53:41;;;;;;;;;36.20;33.60;;;;;20.37;37.55;99464.53;6161557;28;97419;-58
2022/09/06 01:56:53;;;;;;;;;42.00;36.80;;;;;20.35;37.50;99459.31;6158363;28;96843;-55
2022/09/06 02:00:08;;;;;;;;;41.20;36.40;;;;;20.33;37.42;99451.38;6161484;28;97092;-57
2022/09/06 02:03:25;;;;;;;;;44.25;37.50;;;;;20.31;37.27;99450.84;6160639;28;97384;-56
2022/09/06 02:06:32;;;;;;;;;43.00;37.80;;;;;20.26;37.54;99448.06;6161303;28;97721;-57
2022/09/06 02:09:40;;;;;;;;;47.17;40.33;;;;;20.25;37.31;99449.16;6161050;28;97504;-54
2022/09/06 02:12:49;;;;;;;;;39.00;35.00;;;;;20.24;37.69;99452.97;6161159;28;97557;-53
2022/09/06 02:15:59;;;;;;;;;49.33;42.00;;;;;20.24;37.68;99452.13;6161796;28;97276;-56
2022/09/06 02:19:09;;;;;;;;;47.00;40.00;;;;;20.24;37.56;99442.00;6156579;28;97189;-53
2022/09/06 02:22:16;;;;;;;;;45.00;39.00;;;;;20.27;37.80;99437.94;6160741;28;98560;-55
2022/09/06 02:25:25;;;;;;;;;44.50;38.50;;;;;20.23;37.85;99432.16;6161119;28;96944;-55
2022/09/06 02:28:28;;;;;;;;;36.83;34.00;;;;;20.19;37.65;99438.44;6161339;28;97035;-56
2022/09/06 02:31:36;;;;;;;;;55.40;46.80;;;;;20.15;37.54;99440.91;6160469;28;96980;-53
2022/09/06 02:34:41;;;;;;;;;38.40;34.60;;;;;20.01;37.69;99428.84;6158438;28;97570;-56
2022/09/06 02:37:45;;;;;;;;;34.00;32.00;;;;;20.09;37.74;99447.47;6161338;28;97983;-53
2022/09/06 02:40:50;;;;;;;;;46.00;39.33;;;;;20.09;37.76;99438.41;6161090;28;96699;-53
2022/09/06 02:43:53;;;;;;;;;27.40;27.20;;;;;20.08;38.20;99439.53;6157494;28;97395;-53
2022/09/06 02:46:58;;;;;;;;;46.40;40.00;;;;;20.07;37.85;99441.44;6154594;28;97376;-53
2022/09/06 02:50:02;;;;;;;;;58.17;48.00;;;;;20.02;37.94;99441.44;6160808;28;96680;-52
2022/09/06 02:53:08;;;;;;;;;51.00;43.40;;;;;19.96;37.79;99433.47;6160208;28;96675;-56
2022/09/06 02:56:11;;;;;;;;;48.83;41.83;;;;;19.93;38.14;99437.59;6158925;28;97058;-53
2022/09/06 02:59:15;;;;;;;;;54.00;45.50;;;;;19.91;38.94;99431.53;6158354;28;98379;-53
2022/09/06 03:02:20;;;;;;;;;48.50;41.50;;;;;19.91;39.17;99428.81;6152823;28;98490;-56
2022/09/06 03:05:24;;;;;;;;;42.17;37.17;;;;;19.93;38.55;99420.34;6158107;28;97486;-57
2022/09/06 03:08:32;;;;;;;;;42.00;36.50;;;;;19.94;39.40;99424.72;6159626;28;96756;-53
2022/09/06 03:11:35;;;;;;;;;49.17;41.83;;;;;19.92;38.69;99430.47;6159826;28;97578;-57
2022/09/06 03:14:40;;;;;;;;;39.60;35.00;;;;;19.88;37.99;99416.50;6156785;28;98346;-55
2022/09/06 03:17:45;;;;;;;;;28.40;28.20;;;;;19.92;37.88;99422.25;6158766;28;97479;-53
2022/09/06 03:20:49;;;;;;;;;40.00;35.83;;;;;19.92;37.87;99415.94;6155699;28;97542;-53
2022/09/06 03:23:53;;;;;;;;;46.67;40.17;;;;;19.95;37.80;99413.47;6161205;28;97369;-54
2022/09/06 03:26:56;;;;;;;;;47.00;40.00;;;;;19.97;37.62;99415.97;6161288;28;98064;-56
2022/09/06 03:30:00;;;;;;;;;48.60;41.40;;;;;19.98;37.66;99418.44;6159889;28;97142;-57
2022/09/06 03:33:05;;;;;;;;;39.33;35.67;;;;;19.97;37.40;99418.69;6157511;28;97549;-54
2022/09/06 03:36:08;;;;;;;;;47.86;40.43;;;;;19.86;37.40;99402.25;6158683;28;97451;-54
2022/09/06 03:39:12;;;;;;;;;43.83;38.00;;;;;19.98;37.35;99426.66;6159801;28;97480;-53
2022/09/06 03:42:15;;;;;;;;;44.33;38.50;;;;;20.00;37.25;99420.88;6156852;28;97580;-57
2022/09/06 03:45:19;;;;;;;;;54.00;45.43;;;;;19.94;37.59;99424.72;6158868;28;97552;-55
2022/09/06 03:48:25;;;;;;;;;51.20;43.60;;;;;19.96;37.41;99423.34;6158874;28;96977;-54
2022/09/06 03:51:28;;;;;;;;;56.43;47.43;;;;;19.98;37.40;99423.91;6159373;28;97997;-56
2022/09/06 03:54:32;;;;;;;;;47.00;40.17;;;;;19.98;37.72;99420.34;6158778;28;97598;-56
2022/09/06 03:57:35;;;;;;;;;44.00;38.00;;;;;19.84;37.28;99400.88;6159607;28;97274;-56
2022/09/06 04:00:39;;;;;;;;;43.50;38.00;;;;;19.94;37.32;99422.78;6162615;28;97410;-53
2022/09/06 04:03:44;;;;;;;;;40.40;36.00;;;;;19.97;37.52;99413.22;6160840;28;97527;-56
2022/09/06 04:06:48;;;;;;;;;48.00;41.33;;;;;19.95;37.32;99412.66;6161992;28;97082;-55
2022/09/06 04:09:51;;;;;;;;;50.33;43.17;;;;;19.89;37.65;99415.38;6156092;28;98003;-59
2022/09/06 04:12:54;;;;;;;;;45.33;39.33;;;;;19.87;37.46;99411.28;6162159;28;97297;-56
2022/09/06 04:15:58;;;;;;;;;46.80;40.00;;;;;19.81;37.81;99420.56;6160670;28;97234;-55
2022/09/06 04:19:03;;;;;;;;;46.33;39.67;;;;;19.76;37.63;99415.06;6161570;28;97896;-54
2022/09/06 04:22:06;;;;;;;;;76.00;71.83;;;;;19.67;37.85;99420.25;6159965;28;97333;-57
2022/09/06 04:25:12;;;;;;;;;46.60;40.00;;;;;19.69;38.22;99425.47;6162406;28;97353;-56
2022/09/06 04:28:17;;;;;;;;;50.00;43.00;;;;;19.59;38.13;99406.28;6162503;28;97290;-56
2022/09/06 04:31:21;;;;;;;;;39.00;34.83;;;;;19.57;38.00;99401.06;6160764;28;98997;-56
2022/09/06 04:34:25;;;;;;;;;51.17;43.50;;;;;19.78;37.88;99419.19;6161342;28;97434;-56
2022/09/06 04:37:29;;;;;;;;;53.00;45.00;;;;;19.82;37.94;99414.84;6158414;28;97467;-56
2022/09/06 04:40:32;;;;;;;;;37.33;34.00;;;;;19.83;37.78;99421.13;6161359;28;97872;-57
2022/09/06 04:43:36;;;;;;;;;52.00;43.86;;;;;19.87;37.54;99420.31;6161868;28;97339;-54
2022/09/06 04:46:42;;;;;;;;;41.00;36.50;;;;;19.89;37.75;99418.13;6156614;28;98026;-57
2022/09/06 04:49:48;;;;;;;;;63.17;52.33;;;;;19.95;37.79;99421.69;6160439;28;96973;-55
2022/09/06 04:52:51;;;;;;;;;49.33;42.17;;;;;19.99;38.12;99424.75;6160286;28;97274;-51
2022/09/06 04:55:57;;;;;;;;;41.17;36.33;;;;;20.04;37.70;99425.53;6159936;28;97598;-54
2022/09/06 04:59:00;;;;;;;;;43.67;38.50;;;;;20.08;37.64;99434.88;6159445;28;98127;-58
2022/09/06 05:02:04;;;;;;;;;62.60;52.20;;;;;20.04;37.38;99422.81;6157357;28;100238;-58
2022/09/06 05:05:09;;;;;;;;;80.43;79.71;;;;;20.07;37.09;99427.75;6160345;28;97394;-56
2022/09/06 05:08:12;;;;;;;;;49.83;42.00;;;;;20.10;37.30;99426.38;6160718;28;98416;-53
2022/09/06 05:11:16;;;;;;;;;60.57;50.57;;;;;20.14;37.25;99439.25;6157015;28;97404;-57
2022/09/06 05:14:20;;;;;;;;;46.00;39.67;;;;;20.14;37.02;99427.47;6174301;28;98383;-56
2022/09/06 05:17:23;;;;;;;;;48.60;41.60;;;;;20.18;36.77;99431.34;6156799;28;97328;-53
2022/09/06 05:20:28;;;;;;;;;44.60;38.60;;;;;20.18;36.82;99434.09;6160922;28;97540;-54
2022/09/06 05:23:32;;;;;;;;;39.50;35.50;;;;;20.18;36.83;99436.81;6160241;28;97570;-58
2022/09/06 05:26:35;;;;;;;;;53.67;45.17;;;;;20.22;37.18;99437.91;6160867;28;97623;-54
2022/09/06 05:29:39;;;;;;;;;49.00;41.83;;;;;20.29;36.92;99428.34;6156000;28;97101;-56
2022/09/06 05:32:42;;;;;;;;;46.40;40.00;;;;;20.36;36.80;99438.25;6161927;28;97001;-55
2022/09/06 05:35:47;;;;;;;;;45.40;39.20;;;;;20.37;36.54;99434.41;6160747;28;97491;-54
2022/09/06 05:38:50;;;;;;;;;42.71;37.00;;;;;20.48;36.72;99447.00;6160527;28;97472;-54
2022/09/06 05:41:54;;;;;;;;;44.40;38.40;;;;;20.52;36.79;99446.22;6161629;28;97121;-58
2022/09/06 05:44:57;;;;;;;;;42.00;35.60;;;;;20.52;36.62;99446.22;6161925;28;97195;-55
2022/09/06 05:48:01;;;;;;;;;42.20;37.00;;;;;20.60;36.35;99439.34;6161382;28;96980;-58
2022/09/06 05:51:08;;;;;;;;;47.50;40.83;;;;;20.65;36.08;99445.66;6162225;28;97500;-54
2022/09/06 05:54:11;;;;;;;;;62.80;51.60;;;;;20.60;36.14;99442.09;6162337;28;97097;-56
2022/09/06 05:57:15;;;;;;;;;52.00;43.83;;;;;20.66;36.04;99446.47;6161082;28;97468;-56
2022/09/06 06:00:18;;;;;;;;;35.00;33.00;;;;;20.72;36.42;99442.66;6162672;28;96638;-53
2022/09/06 06:03:22;;;;;;;;;45.33;39.33;;;;;20.79;36.23;99447.84;6161611;28;97479;-57
2022/09/06 06:06:30;;;;;;;;;45.20;38.80;;;;;20.92;36.00;99447.28;6161798;28;97146;-54
2022/09/06 06:09:33;;;;;;;;;45.00;39.00;;;;;21.03;36.02;99452.47;6172335;28;96637;-57
2022/09/06 06:12:36;;;;;;;;;46.80;40.40;;;;;21.12;35.86;99453.56;6158630;28;97067;-54
2022/09/06 06:15:40;;;;;;;;;52.33;44.00;;;;;21.23;35.44;99446.19;6156343;28;97935;-56
2022/09/06 06:18:44;;;;;;;;;59.00;49.00;;;;;21.25;35.64;99451.38;6160232;28;97078;-57
2022/09/06 06:21:57;;;;;;;;;28.60;27.60;;;;;21.29;35.70;99450.56;6160178;28;96834;-54
2022/09/06 06:25:00;;;;;;;;;42.00;37.00;;;;;21.41;35.58;99451.06;6159870;28;97753;-53
2022/09/06 06:28:03;;;;;;;;;53.00;44.80;;;;;21.46;35.46;99450.22;6159893;28;97792;-59
2022/09/06 06:31:08;;;;;;;;;45.60;39.60;;;;;21.41;35.68;99442.81;6161582;28;98092;-56
2022/09/06 06:34:12;;;;;;;;;36.17;33.00;;;;;21.56;35.98;99451.00;6161008;28;97038;-55
2022/09/06 06:37:17;;;;;;;;;38.20;34.60;;;;;21.70;36.10;99455.91;6160736;28;96397;-56
2022/09/06 06:40:20;;;;;;;;;49.33;42.17;;;;;21.87;35.76;99446.22;6159077;28;97562;-53
2022/09/06 06:43:24;;;;;;;;;43.25;38.00;;;;;22.00;35.83;99445.63;6160145;28;97466;-54
2022/09/06 06:46:30;;;;;;;;;33.20;31.20;;;;;22.18;35.57;99446.94;6159780;28;97181;-59
2022/09/06 06:49:33;;;;;;;;;48.40;40.60;;;;;22.38;35.62;99449.50;6160080;28;97420;-54
2022/09/06 06:52:38;;;;;;;;;47.75;41.00;;;;;22.57;34.80;99448.84;6160195;28;97556;-55
2022/09/06 06:55:46;;;;;;;;;45.60;39.00;;;;;22.76;34.93;99453.41;6161480;28;97268;-56
2022/09/06 06:58:51;;;;;;;;;29.40;28.60;;;;;22.96;34.31;99455.16;6162497;28;97366;-54
2022/09/06 07:01:54;;;;;;;;;48.17;40.83;;;;;23.03;33.78;99461.13;6161965;28;96490;-60
2022/09/06 07:04:58;;;;;;;;;48.40;41.40;;;;;23.09;33.28;99456.41;6161989;28;96811;-57
2022/09/06 07:08:04;;;;;;;;;47.33;40.50;;;;;23.19;33.76;99462.63;6161752;28;97436;-57
2022/09/06 07:11:10;;;;;;;;;36.40;33.80;;;;;23.36;33.46;99456.66;6160872;28;97410;-57
2022/09/06 07:14:14;;;;;;;;;54.67;45.67;;;;;23.46;33.46;99461.25;6162054;28;96475;-54
2022/09/06 07:17:17;;;;;;;;;34.33;32.50;;;;;23.62;33.43;99462.72;6161534;28;97446;-54
2022/09/06 07:20:21;;;;;;;;;25.75;25.00;;;;;23.73;32.96;99461.50;6161400;28;96823;-53
2022/09/06 07:23:26;;;;;;;;;58.17;47.83;;;;;23.83;33.00;99458.63;6161365;28;98128;-53
2022/09/06 07:26:49;;;;;;;;;52.40;44.40;;;;;23.89;32.85;99460.22;6161894;28;97604;-59
2022/09/06 07:30:13;;;;;;;;;40.40;35.60;;;;;24.05;33.07;99456.13;6161718;28;97446;-58
2022/09/06 07:33:17;;;;;;;;;38.50;34.33;;;;;24.23;32.92;99462.00;6161931;28;97482;-57
2022/09/06 07:36:21;;;;;;;;;42.20;37.20;;;;;24.39;32.78;99460.63;6161767;28;96712;-58
2022/09/06 07:39:25;;;;;;;;;22.25;21.75;;;;;24.56;32.92;99459.00;6161746;28;98997;-54
2022/09/06 07:42:30;;;;;;;;;49.60;42.00;;;;;24.71;32.65;99466.22;6161621;28;97549;-57
2022/09/06 07:45:38;;;;;;;;;33.60;31.60;;;;;24.90;32.80;99472.53;6161148;28;96661;-57
2022/09/06 07:48:43;;;;;;;;;50.00;43.00;;;;;25.07;32.23;99468.41;6161784;28;96781;-60
2022/09/06 07:51:47;;;;;;;;;39.25;35.00;;;;;25.00;31.17;99461.34;6161338;28;97558;-61
2022/09/06 07:54:52;;;;;;;;;57.25;48.00;;;;;25.19;31.77;99469.56;6158951;28;97378;-53
2022/09/06 07:57:56;;;;;;;;;43.33;37.67;;;;;25.30;31.73;99470.19;6159642;28;97484;-52
2022/09/06 08:01:33;;;;;;;;;49.00;41.00;;;;;25.44;31.56;99471.84;6160419;28;97271;-59
2022/09/06 08:04:36;;;;;;;;;39.25;34.75;;;;;25.66;31.61;99462.03;6159084;28;99634;-57
2022/09/06 08:07:40;;;;;;;;;48.60;41.00;;;;;25.90;30.71;99461.84;6160045;28;97105;-57
2022/09/06 08:10:49;;;;;;;;;47.20;40.20;;;;;26.16;31.54;99468.44;6161627;28;97520;-56
2022/09/06 08:13:54;;;;;;;;;35.00;32.40;;;;;26.49;30.73;99463.56;6161467;28;96750;-54
2022/09/06 08:16:58;;;;;;;;;51.20;43.00;;;;;26.72;29.76;99457.78;6159937;28;96762;-57
2022/09/06 08:20:02;;;;;;;;;36.00;32.40;;;;;27.01;30.96;99456.53;6159558;28;97317;-58
2022/09/06 08:23:09;;;;;;;;;49.40;41.60;;;;;27.28;29.40;99461.88;6160337;28;97008;-59
2022/09/06 08:26:14;;;;;;;;;40.25;35.50;;;;;27.51;28.98;99459.94;6160048;28;97140;-57
2022/09/06 08:29:18;;;;;;;;;30.40;30.00;;;;;27.63;28.81;99459.31;6160693;28;97301;-56
2022/09/06 08:32:22;;;;;;;;;34.40;32.20;;;;;27.88;29.06;99453.84;6164394;28;96768;-58
2022/09/06 08:35:25;;;;;;;;;28.20;27.80;;;;;28.01;28.35;99461.22;6164259;28;98337;-55
2022/09/06 08:38:29;;;;;;;;;39.40;35.40;;;;;28.20;28.99;99449.84;6165447;28;97383;-55
2022/09/06 08:41:46;;;;;;;;;29.20;29.00;;;;;28.46;28.06;99443.53;6165476;28;97015;-58
2022/09/06 08:44:52;;;;;;;;;17.80;17.40;;;;;28.68;27.78;99440.59;6165689;28;97207;-56
2022/09/06 08:48:01;;;;;;;;;34.00;32.00;;;;;28.91;27.34;99438.47;6165217;28;97319;-60
2022/09/06 08:51:37;;;;;;;;;33.33;32.00;;;;;29.18;27.75;99438.88;6165301;28;97484;-60
2022/09/06 08:54:48;;;;;;;;;26.50;25.75;;;;;29.32;26.25;99432.34;6165179;28;97155;-56
2022/09/06 08:58:10;;;;;;;;;53.40;45.00;;;;;29.18;25.74;99438.06;6163807;28;97557;-58
2022/09/06 09:01:18;;;;;;;;;20.00;19.80;;;;;29.04;25.77;99423.56;6163152;28;97230;-59
2022/09/06 09:04:26;;;;;;;;;30.00;29.60;;;;;29.22;25.89;99436.28;6163197;28;96966;-53
2022/09/06 09:07:42;;;;;;;;;34.00;31.75;;;;;29.38;25.49;99436.53;6164904;28;98108;-57
2022/09/06 09:10:48;;;;;;;;;35.60;33.20;;;;;29.51;25.69;99444.69;6163870;28;96925;-59
2022/09/06 09:13:58;;;;;;;;;43.40;37.00;;;;;29.69;24.93;99443.44;6164376;28;97199;-59
2022/09/06 09:17:06;;;;;;;;;38.25;35.00;;;;;29.73;24.35;99442.78;6164593;28;98034;-59
2022/09/06 09:20:10;;;;;;;;;49.20;42.00;;;;;29.88;25.05;99429.13;6164593;28;96749;-59
2022/09/06 09:23:14;;;;;;;;;44.80;38.80;;;;;30.08;24.19;99431.16;6164604;28;97054;-58
2022/09/06 09:26:18;;;;;;;;;27.00;27.00;;;;;30.29;24.00;99425.59;6164349;28;97517;-59
2022/09/06 09:29:23;;;;;;;;;15.75;15.75;;;;;30.42;23.95;99423.69;6164736;28;97014;-55
2022/09/06 09:32:34;;;;;;;;;29.20;28.20;;;;;30.26;23.83;99401.22;6165099;28;97027;-57
2022/09/06 09:35:42;;;;;;;;;30.50;30.00;;;;;30.55;24.29;99414.28;6162693;28;97451;-56
2022/09/06 09:38:48;;;;;;;;;49.75;42.50;;;;;30.84;23.49;99403.03;6161887;28;96911;-58
2022/09/06 09:41:51;;;;;;;;;50.20;42.80;;;;;31.06;23.34;99398.25;6162081;28;96904;-60
2022/09/06 09:44:56;;;;;;;;;32.00;30.60;;;;;31.06;22.94;99398.25;6162871;28;96421;-60
2022/09/06 09:48:19;;;;;;;;;34.80;32.20;;;;;31.15;22.80;99402.56;6161641;28;97039;-56
2022/09/06 09:51:24;;;;;;;;;32.60;30.00;;;;;31.03;23.05;99387.81;6161495;28;96835;-54
2022/09/06 09:54:31;;;;;;;;;29.60;28.80;;;;;31.18;23.67;99392.72;6163176;28;97636;-52
2022/09/06 09:57:46;;;;;;;;;36.80;33.60;;;;;31.16;22.80;99364.38;6162332;28;96809;-60
2022/09/06 10:01:09;;;;;;;;;25.25;25.00;;;;;31.42;22.41;99378.81;6161957;28;97145;-58
2022/09/06 10:04:20;;;;;;;;;52.60;44.20;;;;;31.60;22.69;99379.41;6162170;28;97265;-55
2022/09/06 10:07:47;;;;;;;;;44.80;38.40;;;;;31.92;22.14;99372.03;6153792;28;97167;-60
2022/09/06 10:10:51;;;;;;;;;25.60;25.60;;;;;31.98;21.28;99365.06;6162854;28;96668;-58
2022/09/06 10:14:10;;;;;;;;;26.25;26.25;;;;;31.97;21.51;99369.81;6162487;28;97642;-60
2022/09/06 10:17:29;;;;;;;;;50.60;43.20;;;;;31.99;21.64;99364.72;6163289;28;97317;-60
2022/09/06 10:20:40;;;;;;;;;32.40;29.60;;;;;31.94;22.39;99348.22;6163656;28;97639;-58
2022/09/06 10:24:01;;;;;;;;;13.40;13.40;;;;;32.15;21.25;99364.81;6163284;28;96775;-59
2022/09/06 10:27:27;;;;;;;;;24.40;24.40;;;;;32.16;20.50;99358.06;6162626;28;96560;-58
2022/09/06 10:30:34;;;;;;;;;29.50;29.00;;;;;32.09;20.93;99355.03;6163674;28;97406;-60
2022/09/06 10:33:52;;;;;;;;;16.00;15.75;;;;;31.81;19.80;99350.19;6163205;28;97509;-61
2022/09/06 10:37:08;;;;;;;;;40.40;35.00;;;;;31.52;20.47;99339.28;6163943;28;96891;-62
2022/09/06 10:40:15;;;;;;;;;25.00;25.00;;;;;31.32;21.82;99334.69;6163384;28;97874;-58
2022/09/06 10:43:20;;;;;;;;;28.80;28.20;;;;;31.09;21.02;99344.63;6163668;28;97479;-60
2022/09/06 10:46:27;;;;;;;;;29.60;29.20;;;;;31.02;21.46;99341.63;6163156;28;97439;-58
2022/09/06 10:49:33;;;;;;;;;25.75;25.75;;;;;30.91;21.58;99338.44;6162780;28;96827;-56
2022/09/06 10:52:43;;;;;;;;;22.67;22.33;;;;;30.80;21.19;99342.81;6162533;28;97599;-56
2022/09/06 10:55:56;;;;;;;;;32.80;31.20;;;;;30.51;21.12;99338.19;6160942;28;96635;-54
2022/09/06 10:59:12;;;;;;;;;35.40;32.60;;;;;30.33;21.89;99331.16;6160903;28;97272;-57
2022/09/06 11:02:43;;;;;;;;;31.50;30.50;;;;;30.18;21.96;99318.69;6159503;28;96581;-57
2022/09/06 11:05:52;;;;;;;;;38.60;34.80;;;;;30.25;22.03;99332.84;6160833;28;97067;-58
2022/09/06 11:09:11;;;;;;;;;36.00;33.20;;;;;30.19;22.34;99334.22;6161089;28;97433;-59
2022/09/06 11:12:19;;;;;;;;;18.80;18.20;;;;;30.17;22.35;99332.94;6162520;28;97036;-53
2022/09/06 11:15:26;;;;;;;;;29.00;29.00;;;;;30.21;22.51;99318.00;6162526;28;97719;-56
2022/09/06 11:18:36;;;;;;;;;19.50;17.50;;;;;30.37;22.99;99329.31;6162573;28;97100;-56
2022/09/06 11:22:12;;;;;;;;;27.00;26.40;;;;;30.54;22.69;99327.19;6161046;28;96861;-57
2022/09/06 11:25:46;;;;;;;;;50.00;43.00;;;;;30.76;22.16;99323.19;6162043;28;97365;-60
2022/09/06 11:28:54;;;;;;;;;27.25;27.25;;;;;31.00;22.22;99314.06;6161761;28;96542;-60
2022/09/06 11:32:00;;;;;;;;;21.40;21.20;;;;;31.18;21.56;99309.16;6160365;28;97014;-59
2022/09/06 11:35:25;;;;;;;;;41.00;36.00;;;;;31.37;21.14;99306.59;6160758;28;97465;-58
2022/09/06 11:38:29;;;;;;;;;29.00;29.00;;;;;31.59;21.28;99305.31;6160871;28;97322;-55
2022/09/06 11:41:35;;;;;;;;;32.00;30.75;;;;;31.81;21.74;99313.97;6146737;28;97181;-59
2022/09/06 11:44:54;;;;;;;;;39.20;35.00;;;;;31.92;21.25;99291.97;6144430;28;97117;-61
2022/09/06 11:48:33;;;;;;;;;33.50;30.75;;;;;31.99;21.75;99281.03;6158129;28;97649;-53
2022/09/06 11:51:39;;;;;;;;;41.50;36.50;;;;;32.13;20.87;99295.44;6158665;28;97552;-60
2022/09/06 11:54:47;;;;;;;;;25.00;25.00;;;;;32.24;20.92;99295.72;6158704;28;96777;-57
2022/09/06 11:57:57;;;;;;;;;27.60;27.60;;;;;32.40;20.19;99307.72;6159012;28;97235;-58
2022/09/06 12:01:36;;;;;;;;;5.40;5.40;;;;;32.40;20.48;99302.16;6160447;28;96795;-60
2022/09/06 12:05:12;;;;;;;;;31.00;30.00;;;;;32.59;20.40;99296.72;6127918;28;99530;-58
2022/09/06 12:08:34;;;;;;;;;30.00;29.20;;;;;32.98;20.53;99296.97;6164136;28;97080;-55
2022/09/06 12:11:43;;;;;;;;;23.25;22.25;;;;;33.28;20.05;99277.78;6165290;28;97508;-55
2022/09/06 12:14:48;;;;;;;;;28.20;28.20;;;;;33.46;19.47;99285.41;6148594;28;97482;-62
2022/09/06 12:17:51;;;;;;;;;31.80;30.80;;;;;33.74;18.84;99279.66;6165398;28;97295;-58
2022/09/06 12:21:02;;;;;;;;;28.40;28.20;;;;;33.89;19.17;99275.19;6158788;28;96460;-59
2022/09/06 12:24:07;;;;;;;;;18.80;17.80;;;;;33.94;18.57;99277.69;6165729;28;96933;-61
2022/09/06 12:27:15;;;;;;;;;23.00;23.00;;;;;33.97;19.60;99281.72;6165785;28;97529;-57
2022/09/06 12:30:34;;;;;;;;;20.40;20.40;;;;;33.99;18.95;99268.19;6165759;28;96881;-60
2022/09/06 12:33:39;;;;;;;;;18.50;18.50;;;;;34.04;19.65;99267.91;6165031;28;96773;-58
2022/09/06 12:36:55;;;;;;;;;26.00;26.00;;;;;33.88;18.65;99254.78;6164771;28;97117;-55
2022/09/06 12:39:59;;;;;;;;;24.25;23.25;;;;;33.82;19.14;99264.63;6165489;28;96793;-60
2022/09/06 12:43:05;;;;;;;;;22.60;22.60;;;;;33.34;18.86;99237.97;6164153;28;97384;-57
2022/09/06 12:46:08;;;;;;;;;31.20;29.80;;;;;33.09;19.20;99262.50;6164977;28;97535;-59
2022/09/06 12:49:12;;;;;;;;;38.00;34.40;;;;;32.96;20.17;99255.41;6163592;28;98404;-60
2022/09/06 12:52:19;;;;;;;;;41.20;35.80;;;;;32.90;19.67;99242.88;6164792;28;97545;-60
2022/09/06 12:55:26;;;;;;;;;25.00;25.00;;;;;32.80;19.55;99251.00;6165460;28;96919;-59
2022/09/06 12:58:30;;;;;;;;;39.00;35.20;;;;;32.73;20.08;99242.44;6164226;28;97395;-55
2022/09/06 13:01:36;;;;;;;;;39.80;35.40;;;;;32.75;20.47;99240.09;6164569;28;96941;-54
2022/09/06 13:04:42;;;;;;;;;35.20;32.60;;;;;32.84;20.18;99238.72;6165177;28;97208;-53
2022/09/06 13:07:52;;;;;;;;;35.00;32.40;;;;;32.37;19.53;99205.19;6164535;28;97171;-59
2022/09/06 13:10:56;;;;;;;;;34.00;32.00;;;;;32.39;20.05;99241.94;6165203;28;97504;-53
2022/09/06 13:14:09;;;;;;;;;30.80;30.00;;;;;32.15;20.41;99234.53;6163905;28;97040;-59
2022/09/06 13:17:24;;;;;;;;;35.50;32.50;;;;;31.88;20.74;99238.06;6158596;28;97447;-63
2022/09/06 13:20:29;;;;;;;;;31.80;30.20;;;;;31.63;21.50;99239.31;6160544;28;97121;-56
2022/09/06 13:23:41;;;;;;;;;31.00;29.75;;;;;31.51;21.39;99237.34;6162340;28;97535;-56
2022/09/06 13:26:44;;;;;;;;;32.80;30.80;;;;;31.46;21.62;99248.75;6160478;28;98464;-58
2022/09/06 13:29:56;;;;;;;;;33.80;32.00;;;;;31.35;22.03;99234.47;6161919;28;96990;-57
2022/09/06 13:33:01;;;;;;;;;34.40;32.40;;;;;31.36;21.72;99230.53;6148477;28;98395;-59
2022/09/06 13:36:21;;;;;;;;;21.20;21.20;;;;;31.38;21.61;99224.59;6162308;28;97440;-58
2022/09/06 13:39:33;;;;;;;;;35.00;32.40;;;;;31.33;21.54;99222.88;6164266;28;97484;-57
2022/09/06 13:42:37;;;;;;;;;46.00;40.00;;;;;31.28;21.66;99211.97;6163656;28;97581;-54
2022/09/06 13:45:43;;;;;;;;;34.00;32.00;;;;;31.28;22.29;99225.06;6161054;28;97476;-55
2022/09/06 13:48:46;;;;;;;;;24.25;23.50;;;;;31.18;21.68;99225.59;6160234;28;97988;-55
2022/09/06 13:51:50;;;;;;;;;36.80;33.80;;;;;30.90;22.12;99209.53;6161958;28;96803;-57
2022/09/06 13:54:53;;;;;;;;;46.00;40.00;;;;;30.74;22.07;99205.81;6162625;28;97215;-59
2022/09/06 13:57:57;;;;;;;;;29.20;29.00;;;;;30.62;22.39;99207.78;6162163;28;97721;-55
2022/09/06 14:01:02;;;;;;;;;35.60;32.40;;;;;30.51;22.41;99201.84;6162450;28;97071;-58
2022/09/06 14:04:06;;;;;;;;;33.80;32.00;;;;;30.39;22.59;99205.41;6161846;28;97271;-58
2022/09/06 14:07:09;;;;;;;;;22.80;22.80;;;;;30.17;22.19;99197.47;6162531;28;96795;-58
2022/09/06 14:10:13;;;;;;;;;47.00;40.50;;;;;29.97;22.55;99203.91;6162260;28;97436;-58
2022/09/06 14:13:17;;;;;;;;;41.40;36.60;;;;;29.85;23.39;99199.09;6151586;28;97410;-54
2022/09/06 14:16:23;;;;;;;;;33.80;32.00;;;;;29.78;23.18;99204.38;6161465;28;97444;-57
2022/09/06 14:19:27;;;;;;;;;36.00;33.25;;;;;29.76;23.74;99197.53;6162326;28;96919;-53
2022/09/06 14:22:30;;;;;;;;;42.25;37.25;;;;;29.81;24.42;99195.34;6160755;28;98045;-58
2022/09/06 14:25:35;;;;;;;;;44.75;38.25;;;;;29.73;23.61;99181.53;6162683;28;98062;-57